Time;durP1;ratioP1;P1;durP2;ratioP2;P2;SDS_P1;SDS_P2;PMS_P1;PMS_P2;Temp;Humidity;BMP_temperature;BMP_pressure;BME280_temperature;BME280_humidity;BME280_pressure;Samples;Min_cycle;Max_cycle;Signal;HPM_P1;HPM_P2
2022/08/10 00:02:30;;;;;;;1.20;1.20;;;;;;;;;;5053195;28;20433;-69
2022/08/10 00:04:56;;;;;;;1.20;1.20;;;;;;;;;;5067442;28;20417;-70
2022/08/10 00:07:22;;;;;;;1.50;1.40;;;;;;;;;;5071456;28;20788;-70
2022/08/10 00:09:48;;;;;;;2.53;1.30;;;;;;;;;;5064665;28;20429;-69
2022/08/10 00:12:14;;;;;;;1.30;1.30;;;;;;;;;;5052349;28;20797;-69
2022/08/10 00:14:40;;;;;;;1.27;1.27;;;;;;;;;;5053920;28;20472;-70
2022/08/10 00:17:06;;;;;;;3.90;1.70;;;;;;;;;;5066942;28;21509;-69
2022/08/10 00:19:32;;;;;;;1.10;1.10;;;;;;;;;;5061967;28;20476;-70
2022/08/10 00:21:58;;;;;;;4.77;1.80;;;;;;;;;;5052787;28;20487;-70
2022/08/10 00:24:23;;;;;;;1.30;1.20;;;;;;;;;;5070427;28;20917;-70
2022/08/10 00:26:51;;;;;;;1.30;1.30;;;;;;;;;;5068302;28;20438;-70
2022/08/10 00:29:17;;;;;;;1.07;1.07;;;;;;;;;;5072099;28;20467;-70
2022/08/10 00:31:43;;;;;;;2.63;0.97;;;;;;;;;;5071520;28;20487;-70
2022/08/10 00:34:09;;;;;;;0.90;0.90;;;;;;;;;;5067332;28;20430;-70
2022/08/10 00:36:35;;;;;;;1.20;1.20;;;;;;;;;;5052976;28;20430;-71
2022/08/10 00:39:01;;;;;;;1.30;1.30;;;;;;;;;;5053885;28;20549;-70
2022/08/10 00:41:26;;;;;;;1.23;1.13;;;;;;;;;;5066968;28;20485;-72
2022/08/10 00:43:52;;;;;;;1.00;1.00;;;;;;;;;;5071955;28;20433;-70
2022/08/10 00:46:18;;;;;;;2.20;1.27;;;;;;;;;;5072669;28;20455;-69
2022/08/10 00:48:44;;;;;;;1.27;1.27;;;;;;;;;;5061429;28;20429;-70
2022/08/10 00:51:10;;;;;;;1.30;1.30;;;;;;;;;;5052343;28;20433;-69
2022/08/10 00:53:36;;;;;;;1.20;1.20;;;;;;;;;;5053582;28;20473;-70
2022/08/10 00:56:03;;;;;;;1.17;1.17;;;;;;;;;;5052757;28;20422;-70
2022/08/10 00:58:29;;;;;;;1.10;1.10;;;;;;;;;;5054862;28;20433;-69
2022/08/10 01:00:55;;;;;;;0.90;0.90;;;;;;;;;;5050869;28;20473;-69
2022/08/10 01:03:21;;;;;;;1.50;1.27;;;;;;;;;;5053362;28;20759;-71
2022/08/10 01:05:54;;;;;;;1.40;1.40;;;;;;;;;;5052665;28;20529;-70
2022/08/10 01:08:25;;;;;;;1.27;1.27;;;;;;;;;;5052670;28;20430;-69
2022/08/10 01:10:52;;;;;;;3.43;1.80;;;;;;;;;;5053681;28;20487;-69
2022/08/10 01:13:25;;;;;;;1.30;1.30;;;;;;;;;;5053289;28;21166;-69
2022/08/10 01:16:09;;;;;;;1.50;1.40;;;;;;;;;;5052236;28;20946;-69
2022/08/10 01:18:39;;;;;;;1.50;1.40;;;;;;;;;;5052604;28;20906;-69
2022/08/10 01:21:24;;;;;;;1.17;1.07;;;;;;;;;;5066854;28;20495;-70
2022/08/10 01:24:06;;;;;;;1.23;1.03;;;;;;;;;;5073872;28;20424;-69
2022/08/10 01:26:35;;;;;;;3.00;1.37;;;;;;;;;;5076298;28;20444;-69
2022/08/10 01:29:20;;;;;;;1.33;1.23;;;;;;;;;;5075762;28;20416;-69
2022/08/10 01:31:49;;;;;;;1.77;1.17;;;;;;;;;;5061623;28;20504;-69
2022/08/10 01:34:23;;;;;;;1.33;1.33;;;;;;;;;;5072583;28;20414;-70
2022/08/10 01:36:51;;;;;;;1.30;1.30;;;;;;;;;;5056284;28;20432;-70
2022/08/10 01:39:24;;;;;;;1.13;1.13;;;;;;;;;;5061218;28;20440;-70
2022/08/10 01:41:53;;;;;;;1.33;1.33;;;;;;;;;;5075307;28;20433;-69
2022/08/10 01:44:24;;;;;;;1.23;1.23;;;;;;;;;;5075434;28;20718;-69
2022/08/10 01:46:52;;;;;;;11.40;1.50;;;;;;;;;;5074255;28;20430;-69
2022/08/10 01:49:20;;;;;;;1.20;1.20;;;;;;;;;;5074379;28;20429;-70
2022/08/10 01:51:49;;;;;;;3.50;1.50;;;;;;;;;;5073636;28;20459;-71
2022/08/10 01:54:18;;;;;;;1.10;1.10;;;;;;;;;;5055773;28;20904;-70
2022/08/10 01:56:46;;;;;;;2.30;1.37;;;;;;;;;;5055821;28;20438;-71
2022/08/10 01:59:18;;;;;;;1.00;1.00;;;;;;;;;;5058086;28;20836;-70
2022/08/10 02:01:48;;;;;;;0.83;0.83;;;;;;;;;;5054003;28;20957;-70
2022/08/10 02:04:16;;;;;;;1.07;1.07;;;;;;;;;;5055747;28;20427;-71
2022/08/10 02:06:48;;;;;;;2.80;1.00;;;;;;;;;;5056861;28;20434;-72
2022/08/10 02:09:18;;;;;;;1.20;1.20;;;;;;;;;;5054459;28;20844;-71
2022/08/10 02:11:44;;;;;;;1.70;1.53;;;;;;;;;;5055282;28;21029;-71
2022/08/10 02:14:13;;;;;;;1.10;1.10;;;;;;;;;;5055098;28;20521;-69
2022/08/10 02:16:40;;;;;;;2.00;1.60;;;;;;;;;;5056659;28;21003;-70
2022/08/10 02:19:06;;;;;;;1.30;1.30;;;;;;;;;;5054188;28;20495;-70
2022/08/10 02:21:32;;;;;;;1.23;1.00;;;;;;;;;;5055098;28;20501;-70
2022/08/10 02:23:59;;;;;;;1.30;1.20;;;;;;;;;;5055365;28;20454;-70
2022/08/10 02:26:25;;;;;;;1.20;1.20;;;;;;;;;;5060087;28;20922;-69
2022/08/10 02:28:52;;;;;;;1.27;1.27;;;;;;;;;;5073269;28;20421;-69
2022/08/10 02:31:20;;;;;;;1.67;1.67;;;;;;;;;;5074656;28;20440;-71
2022/08/10 02:33:47;;;;;;;6.57;1.97;;;;;;;;;;5071453;28;20988;-70
2022/08/10 02:36:14;;;;;;;1.10;1.10;;;;;;;;;;5074263;28;20906;-72
2022/08/10 02:38:42;;;;;;;1.93;1.40;;;;;;;;;;5073526;28;20471;-70
2022/08/10 02:41:11;;;;;;;2.03;1.53;;;;;;;;;;5060632;28;20482;-70
2022/08/10 02:43:42;;;;;;;1.60;1.53;;;;;;;;;;5054760;28;20923;-69
2022/08/10 02:46:11;;;;;;;7.23;1.50;;;;;;;;;;5054874;28;20442;-69
2022/08/10 02:48:42;;;;;;;2.03;2.03;;;;;;;;;;5056043;28;20516;-70
2022/08/10 02:51:14;;;;;;;5.13;1.63;;;;;;;;;;5062025;28;20429;-69
2022/08/10 02:53:44;;;;;;;1.90;1.90;;;;;;;;;;5067823;28;20462;-70
2022/08/10 02:56:13;;;;;;;2.03;2.03;;;;;;;;;;5047716;28;20427;-69
2022/08/10 02:58:43;;;;;;;3.50;3.40;;;;;;;;;;5054375;28;20414;-70
2022/08/10 03:01:11;;;;;;;4.20;4.00;;;;;;;;;;5072041;28;20590;-70
2022/08/10 03:03:41;;;;;;;18.10;4.63;;;;;;;;;;5074299;28;20468;-70
2022/08/10 03:06:10;;;;;;;5.73;4.60;;;;;;;;;;5054724;28;20437;-69
2022/08/10 03:08:38;;;;;;;5.27;4.90;;;;;;;;;;5055627;28;20479;-70
2022/08/10 03:11:06;;;;;;;5.70;5.00;;;;;;;;;;5054303;28;20439;-70
2022/08/10 03:13:33;;;;;;;4.53;4.13;;;;;;;;;;5057296;28;20779;-70
2022/08/10 03:16:00;;;;;;;2.20;2.10;;;;;;;;;;5053150;28;20434;-69
2022/08/10 03:18:27;;;;;;;5.30;4.00;;;;;;;;;;5053271;28;20404;-69
2022/08/10 03:20:54;;;;;;;5.20;3.83;;;;;;;;;;5054459;28;20218;-70
2022/08/10 03:23:22;;;;;;;2.00;2.00;;;;;;;;;;5062200;28;20437;-69
2022/08/10 03:25:50;;;;;;;2.10;2.10;;;;;;;;;;5064522;28;20437;-69
2022/08/10 03:28:16;;;;;;;2.90;2.70;;;;;;;;;;5060464;28;20457;-69
2022/08/10 03:30:43;;;;;;;2.17;2.07;;;;;;;;;;5052534;28;20419;-69
2022/08/10 03:33:09;;;;;;;2.30;2.20;;;;;;;;;;5052421;28;20521;-70
2022/08/10 03:35:35;;;;;;;2.53;2.33;;;;;;;;;;5053923;28;20430;-70
2022/08/10 03:38:01;;;;;;;1.60;1.50;;;;;;;;;;5054136;28;20430;-70
2022/08/10 03:40:29;;;;;;;2.50;1.83;;;;;;;;;;5066759;28;20512;-70
2022/08/10 03:42:55;;;;;;;1.70;1.60;;;;;;;;;;5071525;28;20456;-70
2022/08/10 03:45:22;;;;;;;2.07;1.90;;;;;;;;;;5063846;28;20476;-70
2022/08/10 03:47:49;;;;;;;1.77;1.77;;;;;;;;;;5052984;28;20443;-69
2022/08/10 03:50:15;;;;;;;2.13;1.50;;;;;;;;;;5054947;28;20430;-70
2022/08/10 03:52:42;;;;;;;2.30;1.90;;;;;;;;;;5060275;28;20449;-70
2022/08/10 03:55:08;;;;;;;3.33;1.37;;;;;;;;;;5063655;28;20474;-70
2022/08/10 03:57:34;;;;;;;1.30;1.30;;;;;;;;;;5053646;28;20418;-70
2022/08/10 04:00:00;;;;;;;1.43;1.37;;;;;;;;;;5052838;28;20470;-70
2022/08/10 04:02:26;;;;;;;1.70;1.70;;;;;;;;;;5053006;28;20426;-70
2022/08/10 04:04:52;;;;;;;1.83;1.80;;;;;;;;;;5054640;28;20508;-71
2022/08/10 04:07:19;;;;;;;1.03;1.03;;;;;;;;;;5053554;28;20569;-69
2022/08/10 04:09:45;;;;;;;1.67;1.53;;;;;;;;;;5056122;28;20487;-69
2022/08/10 04:12:11;;;;;;;5.97;1.70;;;;;;;;;;5069754;28;20427;-70
2022/08/10 04:14:36;;;;;;;1.50;1.40;;;;;;;;;;5072590;28;20435;-69
2022/08/10 04:17:02;;;;;;;3.07;1.67;;;;;;;;;;5072810;28;20437;-70
2022/08/10 04:19:29;;;;;;;16.27;1.60;;;;;;;;;;5064502;28;20438;-69
2022/08/10 04:22:08;;;;;;;1.33;1.33;;;;;;;;;;5052027;28;20911;-69
2022/08/10 04:24:36;;;;;;;1.50;1.50;;;;;;;;;;5056381;28;20439;-70
2022/08/10 04:27:02;;;;;;;1.20;1.20;;;;;;;;;;5055287;28;20426;-70
2022/08/10 04:29:28;;;;;;;1.33;1.33;;;;;;;;;;5066503;28;20422;-70
2022/08/10 04:31:54;;;;;;;1.87;1.70;;;;;;;;;;5051586;28;20437;-69
2022/08/10 04:34:20;;;;;;;1.97;1.93;;;;;;;;;;5069085;28;20418;-70
2022/08/10 04:36:47;;;;;;;1.50;1.40;;;;;;;;;;5065718;28;20517;-70
2022/08/10 04:39:14;;;;;;;1.30;1.27;;;;;;;;;;5059411;28;20453;-70
2022/08/10 04:41:40;;;;;;;2.97;1.80;;;;;;;;;;5070538;28;20477;-70
2022/08/10 04:44:06;;;;;;;1.60;1.27;;;;;;;;;;5071938;28;20496;-69
2022/08/10 04:46:33;;;;;;;1.47;1.37;;;;;;;;;;5072414;28;20441;-71
2022/08/10 04:49:00;;;;;;;1.17;1.17;;;;;;;;;;5070328;28;20914;-69
2022/08/10 04:51:25;;;;;;;1.30;1.30;;;;;;;;;;5070585;28;20530;-70
2022/08/10 04:53:51;;;;;;;1.73;1.63;;;;;;;;;;5070567;28;20518;-69
2022/08/10 04:56:17;;;;;;;3.03;1.40;;;;;;;;;;5070913;28;20434;-70
2022/08/10 04:58:43;;;;;;;1.80;1.70;;;;;;;;;;5053775;28;20830;-69
2022/08/10 05:01:09;;;;;;;1.40;1.40;;;;;;;;;;5052131;28;20477;-71
2022/08/10 05:03:35;;;;;;;2.10;2.10;;;;;;;;;;5052377;28;20441;-69
2022/08/10 05:06:01;;;;;;;1.30;1.30;;;;;;;;;;5063140;28;20437;-70
2022/08/10 05:08:27;;;;;;;1.53;1.53;;;;;;;;;;5053791;28;20422;-70
2022/08/10 05:10:53;;;;;;;1.30;1.30;;;;;;;;;;5066212;28;20438;-70
2022/08/10 05:13:19;;;;;;;6.23;2.13;;;;;;;;;;5071981;28;20750;-71
2022/08/10 05:15:47;;;;;;;2.20;1.87;;;;;;;;;;5070900;28;20466;-69
2022/08/10 05:18:13;;;;;;;5.70;1.80;;;;;;;;;;5069470;28;20513;-72
2022/08/10 05:20:39;;;;;;;1.87;1.77;;;;;;;;;;5052400;28;20564;-72
2022/08/10 05:23:06;;;;;;;1.63;1.40;;;;;;;;;;5052196;28;20429;-69
2022/08/10 05:25:32;;;;;;;1.20;1.20;;;;;;;;;;5052497;28;20509;-69
2022/08/10 05:27:58;;;;;;;2.70;1.80;;;;;;;;;;5053551;28;20459;-69
2022/08/10 05:30:24;;;;;;;6.33;1.93;;;;;;;;;;5070307;28;20925;-69
2022/08/10 05:32:50;;;;;;;1.60;1.50;;;;;;;;;;5055632;28;20437;-69
2022/08/10 05:35:16;;;;;;;2.00;1.90;;;;;;;;;;5052415;28;20910;-70
2022/08/10 05:37:43;;;;;;;1.07;1.07;;;;;;;;;;5052341;28;20426;-69
2022/08/10 05:40:09;;;;;;;4.57;1.77;;;;;;;;;;5053396;28;20544;-70
2022/08/10 05:42:35;;;;;;;1.50;1.40;;;;;;;;;;5052028;28;20434;-69
2022/08/10 05:45:01;;;;;;;1.30;1.30;;;;;;;;;;5051973;28;20512;-70
2022/08/10 05:47:28;;;;;;;3.23;1.20;;;;;;;;;;5052108;28;20821;-70
2022/08/10 05:49:54;;;;;;;2.10;2.10;;;;;;;;;;5053307;28;20442;-70
2022/08/10 05:52:21;;;;;;;1.80;1.80;;;;;;;;;;5052014;28;20446;-69
2022/08/10 05:54:47;;;;;;;1.30;1.30;;;;;;;;;;5052025;28;20466;-71
2022/08/10 05:57:14;;;;;;;1.63;1.53;;;;;;;;;;5052274;28;20422;-70
2022/08/10 05:59:54;;;;;;;1.60;1.60;;;;;;;;;;5052720;28;20426;-70
2022/08/10 06:02:35;;;;;;;2.23;2.00;;;;;;;;;;5051666;28;20422;-71
2022/08/10 06:05:15;;;;;;;1.77;1.60;;;;;;;;;;5052213;28;20430;-70
2022/08/10 06:08:08;;;;;;;3.57;1.77;;;;;;;;;;5052038;28;20414;-71
2022/08/10 06:10:36;;;;;;;4.53;2.00;;;;;;;;;;5065255;28;20493;-74
2022/08/10 06:15:49;;;;;;;1.27;1.27;;;;;;;;;;5055891;28;20548;-74
2022/08/10 06:18:15;;;;;;;1.50;1.50;;;;;;;;;;5068039;28;20425;-72
2022/08/10 06:20:42;;;;;;;7.80;2.33;;;;;;;;;;5075501;28;20481;-73
2022/08/10 06:23:09;;;;;;;1.60;1.50;;;;;;;;;;5075206;28;20505;-73
2022/08/10 06:25:35;;;;;;;2.10;2.00;;;;;;;;;;5073510;28;20463;-73
2022/08/10 06:28:01;;;;;;;2.00;1.60;;;;;;;;;;5074419;28;20481;-70
2022/08/10 06:30:28;;;;;;;1.50;1.50;;;;;;;;;;5073341;28;20536;-72
2022/08/10 06:32:55;;;;;;;3.70;1.70;;;;;;;;;;5054898;28;20452;-72
2022/08/10 06:35:22;;;;;;;3.73;2.00;;;;;;;;;;5056355;28;20446;-72
2022/08/10 06:37:50;;;;;;;2.10;1.87;;;;;;;;;;5055263;28;20415;-71
2022/08/10 06:40:16;;;;;;;1.13;1.13;;;;;;;;;;5053767;28;20988;-70
2022/08/10 06:42:45;;;;;;;1.20;1.20;;;;;;;;;;5056016;28;20485;-72
2022/08/10 06:45:14;;;;;;;1.40;1.40;;;;;;;;;;5054466;28;20422;-71
2022/08/10 06:48:04;;;;;;;1.50;1.40;;;;;;;;;;5054271;28;20410;-71
2022/08/10 06:50:39;;;;;;;2.73;1.90;;;;;;;;;;5072328;28;20461;-73
2022/08/10 06:53:18;;;;;;;1.73;1.60;;;;;;;;;;5058277;28;20426;-74
2022/08/10 06:55:47;;;;;;;1.13;1.03;;;;;;;;;;5053181;28;20476;-74
2022/08/10 06:58:13;;;;;;;2.77;1.53;;;;;;;;;;5055202;28;20426;-74
2022/08/10 07:00:40;;;;;;;3.20;1.70;;;;;;;;;;5057172;28;20474;-75
2022/08/10 07:03:09;;;;;;;1.60;1.60;;;;;;;;;;5053740;28;20967;-74
2022/08/10 07:05:37;;;;;;;2.33;1.80;;;;;;;;;;5053330;28;20559;-75
2022/08/10 07:08:03;;;;;;;3.80;1.63;;;;;;;;;;5053923;28;20951;-74
2022/08/10 07:10:30;;;;;;;1.10;1.10;;;;;;;;;;5070491;28;20800;-75
2022/08/10 07:12:57;;;;;;;1.47;1.43;;;;;;;;;;5073745;28;20418;-74
2022/08/10 07:15:25;;;;;;;6.73;1.53;;;;;;;;;;5074597;28;20936;-73
2022/08/10 07:17:52;;;;;;;4.73;1.60;;;;;;;;;;5060561;28;20419;-74
2022/08/10 07:20:19;;;;;;;1.27;1.27;;;;;;;;;;5054059;28;20477;-73
2022/08/10 07:22:46;;;;;;;5.40;1.47;;;;;;;;;;5054122;28;20988;-74
2022/08/10 07:25:15;;;;;;;4.83;1.77;;;;;;;;;;5073661;28;20438;-73
2022/08/10 07:27:41;;;;;;;2.63;1.30;;;;;;;;;;5073013;28;20445;-75
2022/08/10 07:30:07;;;;;;;1.53;1.50;;;;;;;;;;5073886;28;20436;-74
2022/08/10 07:32:34;;;;;;;5.70;1.33;;;;;;;;;;5073712;28;20421;-73
2022/08/10 07:35:00;;;;;;;4.47;1.40;;;;;;;;;;5058859;28;20437;-75
2022/08/10 07:37:28;;;;;;;1.50;1.40;;;;;;;;;;5054075;28;20426;-73
2022/08/10 07:39:54;;;;;;;2.73;1.70;;;;;;;;;;5055142;28;20556;-74
2022/08/10 07:42:22;;;;;;;2.00;1.50;;;;;;;;;;5048242;28;20442;-73
2022/08/10 07:44:49;;;;;;;1.40;1.37;;;;;;;;;;5053530;28;20423;-74
2022/08/10 07:47:18;;;;;;;4.63;3.13;;;;;;;;;;5053909;28;20423;-74
2022/08/10 07:49:44;;;;;;;1.93;1.63;;;;;;;;;;5055175;28;20410;-73
2022/08/10 07:52:11;;;;;;;10.43;1.93;;;;;;;;;;5073555;28;20417;-74
2022/08/10 07:54:39;;;;;;;3.77;2.43;;;;;;;;;;5065919;28;20481;-75
2022/08/10 07:57:09;;;;;;;3.60;1.30;;;;;;;;;;5053756;28;20461;-74
2022/08/10 07:59:40;;;;;;;1.90;1.80;;;;;;;;;;5052051;28;20509;-74
2022/08/10 08:02:09;;;;;;;3.43;1.70;;;;;;;;;;5053343;28;20441;-74
2022/08/10 08:04:35;;;;;;;2.87;1.70;;;;;;;;;;5053503;28;20422;-75
2022/08/10 08:07:03;;;;;;;2.07;1.97;;;;;;;;;;5053299;28;20787;-75
2022/08/10 08:09:30;;;;;;;1.50;1.40;;;;;;;;;;5053630;28;20410;-75
2022/08/10 08:11:57;;;;;;;1.37;1.37;;;;;;;;;;5053253;28;20425;-75
2022/08/10 08:14:23;;;;;;;1.10;1.10;;;;;;;;;;5053079;28;21005;-74
2022/08/10 08:16:51;;;;;;;1.40;1.40;;;;;;;;;;5056957;28;21041;-75
2022/08/10 08:19:18;;;;;;;1.10;1.10;;;;;;;;;;5053215;28;20950;-75
2022/08/10 08:21:45;;;;;;;7.63;1.53;;;;;;;;;;5053460;28;20473;-75
2022/08/10 08:24:13;;;;;;;1.43;1.40;;;;;;;;;;5073166;28;20426;-75
2022/08/10 08:26:40;;;;;;;1.60;1.50;;;;;;;;;;5073263;28;20444;-75
2022/08/10 08:29:08;;;;;;;1.70;1.60;;;;;;;;;;5057722;28;20488;-74
2022/08/10 08:31:35;;;;;;;2.13;1.27;;;;;;;;;;5052680;28;20841;-75
2022/08/10 08:34:02;;;;;;;2.30;1.50;;;;;;;;;;5061164;28;20440;-72
2022/08/10 08:36:29;;;;;;;6.40;1.20;;;;;;;;;;5073115;28;20417;-74
2022/08/10 08:38:55;;;;;;;1.30;1.20;;;;;;;;;;5069592;28;20437;-74
2022/08/10 08:41:51;;;;;;;2.23;1.23;;;;;;;;;;5052732;28;20518;-74
2022/08/10 08:44:20;;;;;;;1.07;1.07;;;;;;;;;;5051383;28;20422;-74
2022/08/10 08:47:15;;;;;;;7.70;1.27;;;;;;;;;;5054154;28;21830;-73
2022/08/10 08:50:03;;;;;;;0.93;0.93;;;;;;;;;;5056346;28;20458;-74
2022/08/10 08:52:37;;;;;;;1.00;0.90;;;;;;;;;;5032626;28;20414;-74
2022/08/10 08:55:12;;;;;;;1.27;1.27;;;;;;;;;;5032695;28;20454;-74
2022/08/10 08:57:46;;;;;;;2.97;1.20;;;;;;;;;;5032688;28;20935;-74
2022/08/10 09:00:17;;;;;;;3.60;1.40;;;;;;;;;;5049666;28;20462;-79
2022/08/10 09:02:43;;;;;;;1.70;1.00;;;;;;;;;;5052471;28;20426;-72
2022/08/10 09:05:28;;;;;;;1.03;1.03;;;;;;;;;;5052527;28;20406;-73
2022/08/10 09:08:05;;;;;;;1.80;1.03;;;;;;;;;;5052659;28;20425;-72
2022/08/10 09:10:37;;;;;;;1.50;1.40;;;;;;;;;;5052803;28;20417;-80
2022/08/10 09:13:16;;;;;;;1.53;1.50;;;;;;;;;;5051819;28;20433;-74
2022/08/10 09:15:42;;;;;;;1.20;1.20;;;;;;;;;;5052717;28;20406;-76
2022/08/10 09:18:12;;;;;;;2.13;1.43;;;;;;;;;;5052553;28;20426;-81
2022/08/10 09:20:56;;;;;;;1.27;1.00;;;;;;;;;;5052484;28;20505;-76
2022/08/10 09:23:34;;;;;;;1.27;1.07;;;;;;;;;;5052260;28;20425;-75
2022/08/10 09:26:03;;;;;;;1.80;1.63;;;;;;;;;;5052327;28;20411;-77
2022/08/10 09:28:35;;;;;;;0.90;0.90;;;;;;;;;;5052235;28;20422;-81
2022/08/10 09:31:03;;;;;;;2.43;1.50;;;;;;;;;;5052513;28;20441;-74
2022/08/10 09:33:49;;;;;;;1.20;1.20;;;;;;;;;;5051953;28;20415;-78
2022/08/10 09:36:15;;;;;;;1.70;1.40;;;;;;;;;;5050974;28;20422;-74
2022/08/10 09:38:51;;;;;;;0.90;0.90;;;;;;;;;;5051129;28;20422;-74
2022/08/10 09:41:39;;;;;;;1.10;1.10;;;;;;;;;;5051947;28;20281;-80
2022/08/10 09:44:27;;;;;;;3.90;1.00;;;;;;;;;;5052209;28;20410;-73
2022/08/10 09:47:12;;;;;;;1.10;1.10;;;;;;;;;;5055034;28;20434;-72
2022/08/10 09:49:53;;;;;;;1.20;1.20;;;;;;;;;;5055956;28;20417;-74
2022/08/10 09:52:28;;;;;;;1.10;1.10;;;;;;;;;;5055922;28;20465;-77
2022/08/10 09:55:03;;;;;;;1.40;1.40;;;;;;;;;;5055949;28;20501;-75
2022/08/10 09:57:35;;;;;;;3.13;1.30;;;;;;;;;;5055737;28;20406;-72
2022/08/10 10:00:22;;;;;;;1.20;1.10;;;;;;;;;;5055887;28;20507;-80
2022/08/10 10:03:00;;;;;;;1.10;1.10;;;;;;;;;;5055566;28;20425;-75
2022/08/10 10:05:45;;;;;;;2.67;1.10;;;;;;;;;;5053331;28;20403;-80
2022/08/10 10:08:11;;;;;;;1.37;1.13;;;;;;;;;;5054858;28;20413;-75
2022/08/10 10:10:45;;;;;;;0.90;0.90;;;;;;;;;;5055578;28;20398;-75
2022/08/10 10:13:14;;;;;;;7.90;1.27;;;;;;;;;;5054258;28;20418;-74
2022/08/10 10:15:47;;;;;;;1.00;1.00;;;;;;;;;;5055513;28;20419;-75
2022/08/10 10:18:18;;;;;;;1.20;1.20;;;;;;;;;;5055058;28;20918;-74
2022/08/10 10:20:43;;;;;;;5.70;1.00;;;;;;;;;;5055384;28;20921;-74
2022/08/10 10:23:22;;;;;;;3.80;0.77;;;;;;;;;;5055131;28;20446;-79
2022/08/10 10:25:56;;;;;;;0.90;0.90;;;;;;;;;;5054316;28;20543;-76
2022/08/10 10:28:25;;;;;;;0.90;0.90;;;;;;;;;;5055180;28;20455;-78
2022/08/10 10:31:03;;;;;;;1.23;1.23;;;;;;;;;;5055578;28;20438;-80
2022/08/10 10:33:37;;;;;;;1.30;1.30;;;;;;;;;;5053902;28;20500;-75
2022/08/10 10:36:04;;;;;;;1.00;1.00;;;;;;;;;;5055176;28;20446;-78
2022/08/10 10:38:33;;;;;;;0.90;0.90;;;;;;;;;;5055345;28;20414;-81
2022/08/10 10:41:02;;;;;;;2.97;0.73;;;;;;;;;;5055260;28;20509;-74
2022/08/10 10:43:43;;;;;;;1.80;0.93;;;;;;;;;;5054685;28;20502;-74
2022/08/10 10:46:28;;;;;;;0.80;0.80;;;;;;;;;;5053829;28;20854;-78
2022/08/10 10:49:00;;;;;;;1.67;1.00;;;;;;;;;;5055196;28;20501;-75
2022/08/10 10:51:33;;;;;;;3.03;1.10;;;;;;;;;;5054766;28;20489;-73
2022/08/10 10:54:11;;;;;;;1.37;0.97;;;;;;;;;;5054833;28;20974;-81
2022/08/10 10:56:49;;;;;;;1.00;1.00;;;;;;;;;;5054439;28;20410;-78
2022/08/10 10:59:25;;;;;;;1.10;1.10;;;;;;;;;;5053394;28;20434;-75
2022/08/10 11:02:13;;;;;;;0.80;0.80;;;;;;;;;;5054362;28;20539;-73
2022/08/10 11:04:46;;;;;;;1.90;1.60;;;;;;;;;;5054761;28;20418;-76
2022/08/10 11:07:24;;;;;;;0.70;0.70;;;;;;;;;;5054801;28;20438;-77
2022/08/10 11:10:02;;;;;;;1.20;1.20;;;;;;;;;;5054753;28;20414;-73
2022/08/10 11:12:41;;;;;;;1.10;1.10;;;;;;;;;;5054107;28;21129;-74
2022/08/10 11:15:09;;;;;;;1.47;1.37;;;;;;;;;;5054782;28;20442;-77
2022/08/10 11:17:42;;;;;;;3.17;1.00;;;;;;;;;;5054628;28;20421;-78
2022/08/10 11:20:32;;;;;;;0.70;0.70;;;;;;;;;;5054231;28;20470;-80
2022/08/10 11:23:07;;;;;;;0.77;0.77;;;;;;;;;;5054088;28;20454;-80
2022/08/10 11:25:36;;;;;;;1.30;1.30;;;;;;;;;;5054352;28;20941;-80
2022/08/10 11:28:21;;;;;;;0.80;0.80;;;;;;;;;;5054099;28;20798;-80
2022/08/10 11:30:52;;;;;;;1.30;1.20;;;;;;;;;;5054331;28;20422;-77
2022/08/10 11:33:36;;;;;;;3.57;1.27;;;;;;;;;;5054027;28;20502;-80
2022/08/10 11:36:04;;;;;;;1.10;1.10;;;;;;;;;;5054224;28;20422;-78
2022/08/10 11:38:49;;;;;;;1.00;1.00;;;;;;;;;;5054198;28;20441;-73
2022/08/10 11:41:18;;;;;;;1.10;1.10;;;;;;;;;;5053689;28;20485;-79
2022/08/10 11:43:51;;;;;;;1.43;1.03;;;;;;;;;;5053709;28;20422;-78
2022/08/10 11:46:19;;;;;;;1.00;1.00;;;;;;;;;;5053902;28;20415;-81
2022/08/10 11:48:50;;;;;;;3.83;1.00;;;;;;;;;;5053951;28;20433;-79
2022/08/10 11:51:22;;;;;;;5.00;1.10;;;;;;;;;;5052174;28;20433;-78
2022/08/10 11:53:53;;;;;;;1.00;0.90;;;;;;;;;;5053672;28;20462;-75
2022/08/10 11:56:31;;;;;;;1.13;1.03;;;;;;;;;;5053872;28;20934;-73
2022/08/10 12:01:43;;;;;;;3.50;0.70;;;;;;;;;;5053117;28;20485;-80
2022/08/10 12:04:11;;;;;;;1.17;0.90;;;;;;;;;;5053589;28;20537;-76
2022/08/10 12:06:38;;;;;;;1.03;1.03;;;;;;;;;;5053102;28;20795;-80
2022/08/10 12:09:06;;;;;;;0.87;0.87;;;;;;;;;;5053201;28;20421;-77
2022/08/10 12:11:32;;;;;;;1.20;1.20;;;;;;;;;;5053235;28;20418;-79
2022/08/10 12:14:13;;;;;;;5.87;1.50;;;;;;;;;;5053090;28;20414;-77
2022/08/10 12:16:41;;;;;;;2.27;1.00;;;;;;;;;;5053361;28;20414;-76
2022/08/10 12:19:10;;;;;;;1.80;1.00;;;;;;;;;;5053365;28;20497;-76
2022/08/10 12:21:46;;;;;;;0.90;0.90;;;;;;;;;;5052761;28;20486;-75
2022/08/10 12:24:19;;;;;;;1.47;1.10;;;;;;;;;;5052052;28;20629;-75
2022/08/10 12:26:51;;;;;;;1.93;1.07;;;;;;;;;;5053238;28;20712;-78
2022/08/10 12:29:22;;;;;;;1.07;1.00;;;;;;;;;;5053168;28;20425;-73
2022/08/10 12:31:58;;;;;;;0.87;0.87;;;;;;;;;;5052875;28;20476;-73
2022/08/10 12:34:28;;;;;;;2.10;0.97;;;;;;;;;;5053195;28;20414;-76
2022/08/10 12:37:03;;;;;;;1.37;0.73;;;;;;;;;;5052991;28;20458;-77
2022/08/10 12:39:30;;;;;;;3.37;1.57;;;;;;;;;;5053264;28;20410;-76
2022/08/10 12:42:00;;;;;;;1.20;1.20;;;;;;;;;;5052293;28;21124;-77
2022/08/10 12:44:35;;;;;;;1.23;0.80;;;;;;;;;;5052988;28;20497;-80
2022/08/10 12:47:12;;;;;;;0.47;0.47;;;;;;;;;;5052956;28;20418;-79
2022/08/10 12:49:49;;;;;;;0.70;0.70;;;;;;;;;;5052927;28;20790;-76
2022/08/10 12:52:15;;;;;;;0.93;0.93;;;;;;;;;;5052487;28;20824;-79
2022/08/10 12:54:42;;;;;;;6.80;1.10;;;;;;;;;;5052632;28;20489;-75
2022/08/10 12:57:10;;;;;;;1.60;1.10;;;;;;;;;;5052428;28;20476;-79
2022/08/10 12:59:40;;;;;;;1.33;1.00;;;;;;;;;;5052895;28;20410;-80
2022/08/10 13:02:09;;;;;;;3.53;0.90;;;;;;;;;;5052171;28;20603;-78
2022/08/10 13:04:35;;;;;;;1.70;1.00;;;;;;;;;;5052746;28;20414;-76
2022/08/10 13:07:02;;;;;;;0.70;0.70;;;;;;;;;;5051281;28;20926;-72
2022/08/10 13:09:29;;;;;;;1.27;1.27;;;;;;;;;;5052780;28;20425;-75
2022/08/10 13:11:58;;;;;;;0.93;0.93;;;;;;;;;;5051953;28;20972;-81
2022/08/10 13:14:28;;;;;;;0.90;0.90;;;;;;;;;;5052682;28;20514;-80
2022/08/10 13:16:56;;;;;;;0.77;0.77;;;;;;;;;;5052604;28;20517;-80
2022/08/10 13:19:23;;;;;;;0.93;0.70;;;;;;;;;;5054942;28;20415;-74
2022/08/10 13:21:50;;;;;;;0.70;0.70;;;;;;;;;;5056305;28;20481;-79
2022/08/10 13:24:19;;;;;;;0.80;0.80;;;;;;;;;;5056637;28;20505;-77
2022/08/10 13:26:52;;;;;;;0.90;0.90;;;;;;;;;;5056341;28;20423;-81
2022/08/10 13:29:20;;;;;;;1.27;1.27;;;;;;;;;;5056629;28;20409;-76
2022/08/10 13:31:48;;;;;;;1.00;1.00;;;;;;;;;;5054885;28;20936;-74
2022/08/10 13:34:25;;;;;;;2.77;1.43;;;;;;;;;;5056546;28;20413;-73
2022/08/10 13:36:53;;;;;;;3.17;1.27;;;;;;;;;;5056479;28;20475;-74
2022/08/10 13:39:21;;;;;;;1.27;1.27;;;;;;;;;;5056345;28;20422;-78
2022/08/10 13:41:48;;;;;;;6.63;0.83;;;;;;;;;;5055480;28;20572;-81
2022/08/10 13:44:18;;;;;;;0.60;0.60;;;;;;;;;;5056343;28;20422;-80
2022/08/10 13:46:51;;;;;;;0.87;0.87;;;;;;;;;;5056294;28;20415;-77
2022/08/10 13:49:18;;;;;;;1.03;0.90;;;;;;;;;;5056098;28;20471;-74
2022/08/10 13:51:45;;;;;;;1.57;1.23;;;;;;;;;;5055713;28;20402;-79
2022/08/10 13:54:13;;;;;;;1.50;1.33;;;;;;;;;;5055932;28;20481;-77
2022/08/10 13:56:40;;;;;;;0.93;0.93;;;;;;;;;;5055856;28;20414;-80
2022/08/10 13:59:06;;;;;;;1.00;1.00;;;;;;;;;;5056126;28;20414;-80
2022/08/10 14:01:35;;;;;;;0.90;0.90;;;;;;;;;;5055326;28;20499;-77
2022/08/10 14:04:04;;;;;;;0.90;0.83;;;;;;;;;;5056008;28;20472;-74
2022/08/10 14:06:32;;;;;;;1.27;0.87;;;;;;;;;;5055894;28;20425;-79
2022/08/10 14:09:04;;;;;;;5.30;0.90;;;;;;;;;;5055921;28;20417;-75
2022/08/10 14:11:31;;;;;;;0.90;0.90;;;;;;;;;;5055384;28;20406;-75
2022/08/10 14:13:58;;;;;;;0.80;0.80;;;;;;;;;;5055420;28;20425;-79
2022/08/10 14:16:24;;;;;;;4.03;0.80;;;;;;;;;;5055863;28;20930;-72
2022/08/10 14:18:51;;;;;;;1.23;0.90;;;;;;;;;;5055792;28;20409;-74
2022/08/10 14:21:18;;;;;;;3.13;1.43;;;;;;;;;;5055148;28;20577;-76
2022/08/10 14:23:45;;;;;;;1.50;0.80;;;;;;;;;;5054271;28;20438;-77
2022/08/10 14:26:11;;;;;;;0.87;0.87;;;;;;;;;;5055499;28;20406;-76
2022/08/10 14:28:45;;;;;;;0.70;0.70;;;;;;;;;;5055195;28;20464;-78
2022/08/10 14:31:14;;;;;;;0.83;0.80;;;;;;;;;;5054111;28;20476;-79
2022/08/10 14:33:48;;;;;;;0.87;0.87;;;;;;;;;;5056211;28;20509;-76
2022/08/10 14:36:17;;;;;;;0.93;0.93;;;;;;;;;;5057608;28;20434;-75
2022/08/10 14:38:44;;;;;;;2.03;0.97;;;;;;;;;;5055348;28;20449;-78
2022/08/10 14:41:15;;;;;;;3.50;0.97;;;;;;;;;;5054790;28;20487;-75
2022/08/10 14:43:42;;;;;;;1.23;0.73;;;;;;;;;;5060915;28;20933;-77
2022/08/10 14:46:10;;;;;;;0.60;0.60;;;;;;;;;;5056916;28;20433;-72
2022/08/10 14:48:39;;;;;;;0.97;0.97;;;;;;;;;;5057895;28;20527;-75
2022/08/10 14:51:06;;;;;;;1.43;1.17;;;;;;;;;;5063980;28;20438;-75
2022/08/10 14:53:34;;;;;;;4.33;1.30;;;;;;;;;;5071577;28;20483;-74
2022/08/10 14:56:05;;;;;;;1.90;0.73;;;;;;;;;;5073129;28;20438;-77
2022/08/10 14:58:51;;;;;;;0.70;0.70;;;;;;;;;;5056285;28;20422;-81
2022/08/10 15:01:18;;;;;;;0.80;0.80;;;;;;;;;;5054332;28;20478;-74
2022/08/10 15:03:47;;;;;;;0.90;0.90;;;;;;;;;;5050614;28;20430;-81
2022/08/10 15:06:15;;;;;;;2.87;1.33;;;;;;;;;;5041728;28;20904;-72